sensor_id;sensor_type;location;lat;lon;timestamp;temperature;humidity
73322;DHT22;61549;37.044;22.128;2022-09-21T00:01:24;25.90;56.00
73322;DHT22;61549;37.044;22.128;2022-09-21T00:03:59;25.90;56.20
73322;DHT22;61549;37.044;22.128;2022-09-21T00:06:27;25.80;56.20
73322;DHT22;61549;37.044;22.128;2022-09-21T00:08:54;25.70;56.40
73322;DHT22;61549;37.044;22.128;2022-09-21T00:11:23;25.70;56.60
73322;DHT22;61549;37.044;22.128;2022-09-21T00:13:58;25.60;56.20
73322;DHT22;61549;37.044;22.128;2022-09-21T00:16:26;25.60;56.00
73322;DHT22;61549;37.044;22.128;2022-09-21T00:18:52;25.60;56.00
73322;DHT22;61549;37.044;22.128;2022-09-21T00:21:18;25.50;56.50
73322;DHT22;61549;37.044;22.128;2022-09-21T00:23:44;25.60;56.10
73322;DHT22;61549;37.044;22.128;2022-09-21T00:26:13;25.50;56.10
73322;DHT22;61549;37.044;22.128;2022-09-21T00:28:39;25.50;56.30
73322;DHT22;61549;37.044;22.128;2022-09-21T00:31:09;25.50;56.10
73322;DHT22;61549;37.044;22.128;2022-09-21T00:33:39;25.40;56.00
73322;DHT22;61549;37.044;22.128;2022-09-21T00:36:11;25.40;55.90
73322;DHT22;61549;37.044;22.128;2022-09-21T00:38:38;25.40;55.80
73322;DHT22;61549;37.044;22.128;2022-09-21T00:41:05;25.30;55.80
73322;DHT22;61549;37.044;22.128;2022-09-21T00:43:33;25.30;55.50
73322;DHT22;61549;37.044;22.128;2022-09-21T00:46:15;25.40;55.30
73322;DHT22;61549;37.044;22.128;2022-09-21T00:48:44;25.40;54.80
73322;DHT22;61549;37.044;22.128;2022-09-21T00:51:12;25.40;55.00
73322;DHT22;61549;37.044;22.128;2022-09-21T00:53:38;25.50;54.90
73322;DHT22;61549;37.044;22.128;2022-09-21T00:56:05;25.60;55.00
73322;DHT22;61549;37.044;22.128;2022-09-21T00:58:40;25.60;55.10
73322;DHT22;61549;37.044;22.128;2022-09-21T01:01:07;25.60;54.90
73322;DHT22;61549;37.044;22.128;2022-09-21T01:03:34;25.60;54.80
73322;DHT22;61549;37.044;22.128;2022-09-21T01:06:00;25.50;55.00
73322;DHT22;61549;37.044;22.128;2022-09-21T01:08:26;25.50;54.90
73322;DHT22;61549;37.044;22.128;2022-09-21T01:16:03;25.50;54.90
73322;DHT22;61549;37.044;22.128;2022-09-21T01:18:51;25.50;54.80
73322;DHT22;61549;37.044;22.128;2022-09-21T01:21:32;25.40;54.60
73322;DHT22;61549;37.044;22.128;2022-09-21T01:32:27;25.30;55.30
73322;DHT22;61549;37.044;22.128;2022-09-21T01:35:11;25.30;55.40
73322;DHT22;61549;37.044;22.128;2022-09-21T01:38:01;25.30;55.30
73322;DHT22;61549;37.044;22.128;2022-09-21T01:40:35;25.30;55.00
73322;DHT22;61549;37.044;22.128;2022-09-21T01:43:03;25.20;54.90
73322;DHT22;61549;37.044;22.128;2022-09-21T01:45:33;25.20;54.90
73322;DHT22;61549;37.044;22.128;2022-09-21T01:48:00;25.20;55.00
73322;DHT22;61549;37.044;22.128;2022-09-21T01:50:31;25.10;55.10
73322;DHT22;61549;37.044;22.128;2022-09-21T01:55:57;25.20;55.30
73322;DHT22;61549;37.044;22.128;2022-09-21T01:58:41;25.20;55.30
73322;DHT22;61549;37.044;22.128;2022-09-21T02:01:10;25.20;55.20
73322;DHT22;61549;37.044;22.128;2022-09-21T02:03:47;25.10;55.30
73322;DHT22;61549;37.044;22.128;2022-09-21T02:06:14;25.10;55.20
73322;DHT22;61549;37.044;22.128;2022-09-21T02:08:40;25.10;55.20
73322;DHT22;61549;37.044;22.128;2022-09-21T02:11:07;25.10;55.20
73322;DHT22;61549;37.044;22.128;2022-09-21T02:13:38;25.10;55.40
73322;DHT22;61549;37.044;22.128;2022-09-21T02:24:50;25.00;55.50
73322;DHT22;61549;37.044;22.128;2022-09-21T02:27:44;25.10;55.30
73322;DHT22;61549;37.044;22.128;2022-09-21T02:30:20;25.00;55.20
73322;DHT22;61549;37.044;22.128;2022-09-21T02:38:50;25.00;55.20
73322;DHT22;61549;37.044;22.128;2022-09-21T02:41:40;25.00;55.70
73322;DHT22;61549;37.044;22.128;2022-09-21T02:44:23;24.90;55.60
73322;DHT22;61549;37.044;22.128;2022-09-21T02:46:56;24.90;55.70
73322;DHT22;61549;37.044;22.128;2022-09-21T02:49:36;24.90;55.60
73322;DHT22;61549;37.044;22.128;2022-09-21T02:52:08;24.90;55.60
73322;DHT22;61549;37.044;22.128;2022-09-21T02:54:37;24.90;55.70
73322;DHT22;61549;37.044;22.128;2022-09-21T02:57:04;24.90;55.70
73322;DHT22;61549;37.044;22.128;2022-09-21T02:59:31;24.80;56.00
73322;DHT22;61549;37.044;22.128;2022-09-21T03:01:57;24.70;56.20
73322;DHT22;61549;37.044;22.128;2022-09-21T03:04:23;24.70;56.40
73322;DHT22;61549;37.044;22.128;2022-09-21T03:06:49;24.60;56.50
73322;DHT22;61549;37.044;22.128;2022-09-21T03:09:16;24.60;56.70
73322;DHT22;61549;37.044;22.128;2022-09-21T03:11:41;24.50;56.80
73322;DHT22;61549;37.044;22.128;2022-09-21T03:14:07;24.50;56.90
73322;DHT22;61549;37.044;22.128;2022-09-21T03:16:37;24.50;56.90
73322;DHT22;61549;37.044;22.128;2022-09-21T03:19:04;24.50;56.80
73322;DHT22;61549;37.044;22.128;2022-09-21T03:21:30;24.40;56.70
73322;DHT22;61549;37.044;22.128;2022-09-21T03:23:56;24.40;56.60
73322;DHT22;61549;37.044;22.128;2022-09-21T03:26:22;24.40;56.60
73322;DHT22;61549;37.044;22.128;2022-09-21T03:28:49;24.40;56.50
73322;DHT22;61549;37.044;22.128;2022-09-21T03:31:15;24.40;56.60
73322;DHT22;61549;37.044;22.128;2022-09-21T03:33:41;24.50;56.80
73322;DHT22;61549;37.044;22.128;2022-09-21T03:36:07;24.50;56.70
73322;DHT22;61549;37.044;22.128;2022-09-21T03:38:33;24.50;56.50
73322;DHT22;61549;37.044;22.128;2022-09-21T03:40:59;24.50;56.50
73322;DHT22;61549;37.044;22.128;2022-09-21T03:43:25;24.50;56.50
73322;DHT22;61549;37.044;22.128;2022-09-21T03:45:51;24.50;56.70
73322;DHT22;61549;37.044;22.128;2022-09-21T03:48:17;24.50;57.00
73322;DHT22;61549;37.044;22.128;2022-09-21T03:50:43;24.50;57.30
73322;DHT22;61549;37.044;22.128;2022-09-21T03:53:09;24.50;57.50
73322;DHT22;61549;37.044;22.128;2022-09-21T03:55:35;24.50;57.20
73322;DHT22;61549;37.044;22.128;2022-09-21T03:58:02;24.60;57.20
73322;DHT22;61549;37.044;22.128;2022-09-21T04:00:28;24.60;57.20
73322;DHT22;61549;37.044;22.128;2022-09-21T04:02:54;24.50;57.20
73322;DHT22;61549;37.044;22.128;2022-09-21T04:05:21;24.50;57.40
73322;DHT22;61549;37.044;22.128;2022-09-21T04:07:47;24.40;57.40
73322;DHT22;61549;37.044;22.128;2022-09-21T04:10:18;24.50;57.70
73322;DHT22;61549;37.044;22.128;2022-09-21T04:12:45;24.40;57.80
73322;DHT22;61549;37.044;22.128;2022-09-21T04:15:16;24.40;57.90
73322;DHT22;61549;37.044;22.128;2022-09-21T04:17:44;24.40;57.90
73322;DHT22;61549;37.044;22.128;2022-09-21T04:20:11;24.40;58.00
73322;DHT22;61549;37.044;22.128;2022-09-21T04:22:37;24.40;58.00
73322;DHT22;61549;37.044;22.128;2022-09-21T04:25:04;24.30;58.00
73322;DHT22;61549;37.044;22.128;2022-09-21T04:27:31;24.30;58.10
73322;DHT22;61549;37.044;22.128;2022-09-21T04:29:58;24.30;58.40
73322;DHT22;61549;37.044;22.128;2022-09-21T04:32:23;24.30;58.70
73322;DHT22;61549;37.044;22.128;2022-09-21T04:34:49;24.30;58.90
73322;DHT22;61549;37.044;22.128;2022-09-21T04:37:16;24.30;58.70
73322;DHT22;61549;37.044;22.128;2022-09-21T04:39:41;24.30;58.60
73322;DHT22;61549;37.044;22.128;2022-09-21T04:42:08;24.30;58.60
73322;DHT22;61549;37.044;22.128;2022-09-21T04:44:35;24.30;58.80
73322;DHT22;61549;37.044;22.128;2022-09-21T04:47:01;24.30;58.90
73322;DHT22;61549;37.044;22.128;2022-09-21T04:49:27;24.40;59.10
73322;DHT22;61549;37.044;22.128;2022-09-21T04:51:53;24.50;59.10
73322;DHT22;61549;37.044;22.128;2022-09-21T04:54:18;24.50;58.90
73322;DHT22;61549;37.044;22.128;2022-09-21T04:56:44;24.50;58.90
73322;DHT22;61549;37.044;22.128;2022-09-21T04:59:10;24.50;58.90
73322;DHT22;61549;37.044;22.128;2022-09-21T05:01:36;24.60;59.10
73322;DHT22;61549;37.044;22.128;2022-09-21T05:04:02;24.60;59.10
73322;DHT22;61549;37.044;22.128;2022-09-21T05:06:28;24.60;59.00
73322;DHT22;61549;37.044;22.128;2022-09-21T05:08:54;24.60;58.90
73322;DHT22;61549;37.044;22.128;2022-09-21T05:11:39;24.70;58.70
73322;DHT22;61549;37.044;22.128;2022-09-21T05:14:05;24.70;58.40
73322;DHT22;61549;37.044;22.128;2022-09-21T05:16:31;24.70;58.80
73322;DHT22;61549;37.044;22.128;2022-09-21T05:18:57;24.80;59.00
73322;DHT22;61549;37.044;22.128;2022-09-21T05:21:23;24.90;59.20
73322;DHT22;61549;37.044;22.128;2022-09-21T05:23:50;24.80;59.20
73322;DHT22;61549;37.044;22.128;2022-09-21T05:26:16;24.90;59.50
73322;DHT22;61549;37.044;22.128;2022-09-21T05:28:42;24.90;59.50
73322;DHT22;61549;37.044;22.128;2022-09-21T05:34:05;25.10;59.50
73322;DHT22;61549;37.044;22.128;2022-09-21T05:37:00;25.10;59.40
73322;DHT22;61549;37.044;22.128;2022-09-21T05:39:28;25.20;59.30
73322;DHT22;61549;37.044;22.128;2022-09-21T05:41:54;25.30;58.80
73322;DHT22;61549;37.044;22.128;2022-09-21T05:44:21;25.30;58.30
73322;DHT22;61549;37.044;22.128;2022-09-21T05:52:53;25.60;56.10
73322;DHT22;61549;37.044;22.128;2022-09-21T05:55:42;25.70;56.10
73322;DHT22;61549;37.044;22.128;2022-09-21T06:03:44;26.20;54.40
73322;DHT22;61549;37.044;22.128;2022-09-21T06:06:13;26.40;53.90
73322;DHT22;61549;37.044;22.128;2022-09-21T06:08:38;26.60;53.60
73322;DHT22;61549;37.044;22.128;2022-09-21T06:11:04;26.70;52.90
73322;DHT22;61549;37.044;22.128;2022-09-21T06:13:30;26.90;52.40
73322;DHT22;61549;37.044;22.128;2022-09-21T06:15:56;27.10;51.90
73322;DHT22;61549;37.044;22.128;2022-09-21T06:18:23;27.30;51.50
73322;DHT22;61549;37.044;22.128;2022-09-21T06:20:48;27.30;51.60
73322;DHT22;61549;37.044;22.128;2022-09-21T06:23:14;27.50;50.60
73322;DHT22;61549;37.044;22.128;2022-09-21T06:25:40;27.60;50.60
73322;DHT22;61549;37.044;22.128;2022-09-21T06:28:11;27.60;50.30
73322;DHT22;61549;37.044;22.128;2022-09-21T06:30:38;27.80;50.50
73322;DHT22;61549;37.044;22.128;2022-09-21T06:33:07;27.90;49.50
73322;DHT22;61549;37.044;22.128;2022-09-21T06:35:34;28.20;48.70
73322;DHT22;61549;37.044;22.128;2022-09-21T06:38:03;28.30;48.60
73322;DHT22;61549;37.044;22.128;2022-09-21T06:40:33;28.60;49.60
73322;DHT22;61549;37.044;22.128;2022-09-21T06:43:01;28.70;48.60
73322;DHT22;61549;37.044;22.128;2022-09-21T06:45:28;28.90;47.90
73322;DHT22;61549;37.044;22.128;2022-09-21T06:47:54;29.10;47.70
73322;DHT22;61549;37.044;22.128;2022-09-21T06:50:21;29.00;49.40
73322;DHT22;61549;37.044;22.128;2022-09-21T06:52:47;29.10;49.90
73322;DHT22;61549;37.044;22.128;2022-09-21T06:55:13;29.10;49.20
73322;DHT22;61549;37.044;22.128;2022-09-21T06:57:39;29.20;49.40
73322;DHT22;61549;37.044;22.128;2022-09-21T07:00:07;29.30;49.60
73322;DHT22;61549;37.044;22.128;2022-09-21T07:02:34;29.40;49.10
73322;DHT22;61549;37.044;22.128;2022-09-21T07:05:00;29.50;48.50
73322;DHT22;61549;37.044;22.128;2022-09-21T07:07:27;29.50;48.70
73322;DHT22;61549;37.044;22.128;2022-09-21T07:09:57;29.60;48.30
73322;DHT22;61549;37.044;22.128;2022-09-21T07:12:29;29.70;48.20
73322;DHT22;61549;37.044;22.128;2022-09-21T07:15:02;29.80;48.10
73322;DHT22;61549;37.044;22.128;2022-09-21T07:17:32;29.90;47.80
73322;DHT22;61549;37.044;22.128;2022-09-21T07:19:58;30.00;48.10
73322;DHT22;61549;37.044;22.128;2022-09-21T07:22:28;30.00;47.60
73322;DHT22;61549;37.044;22.128;2022-09-21T07:25:00;30.00;48.30
73322;DHT22;61549;37.044;22.128;2022-09-21T07:27:28;29.90;48.90
73322;DHT22;61549;37.044;22.128;2022-09-21T07:29:55;29.90;48.90
73322;DHT22;61549;37.044;22.128;2022-09-21T07:32:20;29.90;49.50
73322;DHT22;61549;37.044;22.128;2022-09-21T07:34:46;30.00;49.40
73322;DHT22;61549;37.044;22.128;2022-09-21T07:37:13;30.00;49.20
73322;DHT22;61549;37.044;22.128;2022-09-21T07:39:39;30.10;49.20
73322;DHT22;61549;37.044;22.128;2022-09-21T07:42:05;30.20;49.00
73322;DHT22;61549;37.044;22.128;2022-09-21T07:44:31;30.30;49.80
73322;DHT22;61549;37.044;22.128;2022-09-21T07:46:59;30.30;50.00
73322;DHT22;61549;37.044;22.128;2022-09-21T07:49:25;30.40;48.70
73322;DHT22;61549;37.044;22.128;2022-09-21T07:51:51;30.50;49.50
73322;DHT22;61549;37.044;22.128;2022-09-21T08:10:32;30.60;47.30
73322;DHT22;61549;37.044;22.128;2022-09-21T08:13:08;30.40;47.40
73322;DHT22;61549;37.044;22.128;2022-09-21T08:15:33;30.30;48.10
73322;DHT22;61549;37.044;22.128;2022-09-21T08:17:59;30.20;47.60
73322;DHT22;61549;37.044;22.128;2022-09-21T08:20:25;30.20;47.60
73322;DHT22;61549;37.044;22.128;2022-09-21T08:22:59;30.10;47.30
73322;DHT22;61549;37.044;22.128;2022-09-21T08:25:25;30.10;48.00
73322;DHT22;61549;37.044;22.128;2022-09-21T08:27:57;29.90;47.90
73322;DHT22;61549;37.044;22.128;2022-09-21T08:30:24;29.80;48.10
73322;DHT22;61549;37.044;22.128;2022-09-21T08:32:54;29.80;48.00
73322;DHT22;61549;37.044;22.128;2022-09-21T08:35:20;29.90;47.90
73322;DHT22;61549;37.044;22.128;2022-09-21T08:37:46;29.80;48.50
73322;DHT22;61549;37.044;22.128;2022-09-21T08:40:12;29.70;48.10
